Alpine, Alabama
Current Conditions -  °F | °C
As of 11:55 AM on Monday 24 Nov 2014 (Local Time) from KSCD Reporting Station
Clear Clear  
Wind Chill: 71°   Ceiling: Unl
Heat Index: 71°   Visibility: 10mi
Dew Point: 54°   Wind: 15mph
Humidity: 54%   Direction: 250°WSW
Pressure: 29.82"   Gusts: NA
Location:  33.34°N, 86.23°W
Report Text: KSCD 241755Z AUTO 25013KT 10SM CLR 22/12 A2982 RMK AO2 T02170121 10219 20170
Loading
Personal Weather Stations






























Interactive Weather Map New forecast layout! Learn more

10-Day Weather Forecast

Advertisements
Track Severe Weather on mobile